sensor_id;sensor_type;location;lat;lon;timestamp;P1;durP1;ratioP1;P2;durP2;ratioP2
11431;SDS011;5772;50.940;6.782;2023-09-12T00:01:03;19.45;;;18.20;;
11431;SDS011;5772;50.940;6.782;2023-09-12T00:03:28;20.80;;;19.58;;
11431;SDS011;5772;50.940;6.782;2023-09-12T00:05:54;21.63;;;20.13;;
11431;SDS011;5772;50.940;6.782;2023-09-12T00:08:21;22.48;;;21.38;;
11431;SDS011;5772;50.940;6.782;2023-09-12T00:10:54;23.90;;;22.23;;
11431;SDS011;5772;50.940;6.782;2023-09-12T00:13:23;24.15;;;22.73;;
11431;SDS011;5772;50.940;6.782;2023-09-12T00:15:48;23.17;;;21.83;;
11431;SDS011;5772;50.940;6.782;2023-09-12T00:18:14;24.05;;;22.40;;
11431;SDS011;5772;50.940;6.782;2023-09-12T00:20:39;25.50;;;24.13;;
11431;SDS011;5772;50.940;6.782;2023-09-12T00:23:04;24.30;;;22.75;;
11431;SDS011;5772;50.940;6.782;2023-09-12T00:25:31;23.48;;;22.08;;
11431;SDS011;5772;50.940;6.782;2023-09-12T00:27:56;23.40;;;22.10;;
11431;SDS011;5772;50.940;6.782;2023-09-12T00:30:22;27.13;;;25.42;;
11431;SDS011;5772;50.940;6.782;2023-09-12T00:32:47;25.63;;;24.02;;
11431;SDS011;5772;50.940;6.782;2023-09-12T00:35:12;25.77;;;24.27;;
11431;SDS011;5772;50.940;6.782;2023-09-12T00:37:38;27.70;;;26.00;;
11431;SDS011;5772;50.940;6.782;2023-09-12T00:40:04;27.05;;;25.48;;
11431;SDS011;5772;50.940;6.782;2023-09-12T00:42:31;29.10;;;27.35;;
11431;SDS011;5772;50.940;6.782;2023-09-12T00:44:56;31.00;;;28.60;;
11431;SDS011;5772;50.940;6.782;2023-09-12T00:47:22;31.25;;;29.25;;
11431;SDS011;5772;50.940;6.782;2023-09-12T00:49:48;30.42;;;28.55;;
11431;SDS011;5772;50.940;6.782;2023-09-12T00:52:14;31.38;;;29.52;;
11431;SDS011;5772;50.940;6.782;2023-09-12T00:54:39;33.10;;;31.00;;
11431;SDS011;5772;50.940;6.782;2023-09-12T00:57:05;32.03;;;30.03;;
11431;SDS011;5772;50.940;6.782;2023-09-12T00:59:32;30.73;;;28.52;;
11431;SDS011;5772;50.940;6.782;2023-09-12T01:01:57;33.20;;;31.02;;
11431;SDS011;5772;50.940;6.782;2023-09-12T01:04:23;35.50;;;33.20;;
11431;SDS011;5772;50.940;6.782;2023-09-12T01:06:48;36.95;;;34.28;;
11431;SDS011;5772;50.940;6.782;2023-09-12T01:09:14;35.23;;;33.10;;
11431;SDS011;5772;50.940;6.782;2023-09-12T01:11:39;36.92;;;34.63;;
11431;SDS011;5772;50.940;6.782;2023-09-12T01:14:05;38.73;;;36.07;;
11431;SDS011;5772;50.940;6.782;2023-09-12T01:16:31;38.50;;;36.00;;
11431;SDS011;5772;50.940;6.782;2023-09-12T01:18:57;39.30;;;36.72;;
11431;SDS011;5772;50.940;6.782;2023-09-12T01:24:18;35.00;;;32.80;;
11431;SDS011;5772;50.940;6.782;2023-09-12T01:26:59;36.92;;;34.33;;
11431;SDS011;5772;50.940;6.782;2023-09-12T01:29:38;39.97;;;37.40;;
11431;SDS011;5772;50.940;6.782;2023-09-12T01:32:04;38.33;;;35.87;;
11431;SDS011;5772;50.940;6.782;2023-09-12T01:34:29;37.60;;;35.33;;
11431;SDS011;5772;50.940;6.782;2023-09-12T01:36:55;36.90;;;34.40;;
11431;SDS011;5772;50.940;6.782;2023-09-12T01:39:20;37.00;;;34.47;;
11431;SDS011;5772;50.940;6.782;2023-09-12T01:41:45;35.72;;;33.35;;
11431;SDS011;5772;50.940;6.782;2023-09-12T01:44:14;28.10;;;25.93;;
11431;SDS011;5772;50.940;6.782;2023-09-12T01:46:39;27.47;;;25.17;;
11431;SDS011;5772;50.940;6.782;2023-09-12T01:49:05;26.42;;;24.65;;
11431;SDS011;5772;50.940;6.782;2023-09-12T01:51:32;27.88;;;25.75;;
11431;SDS011;5772;50.940;6.782;2023-09-12T01:53:58;28.93;;;27.07;;
11431;SDS011;5772;50.940;6.782;2023-09-12T01:56:24;25.20;;;23.40;;
11431;SDS011;5772;50.940;6.782;2023-09-12T01:58:50;24.98;;;23.38;;
11431;SDS011;5772;50.940;6.782;2023-09-12T02:01:17;26.37;;;24.33;;
11431;SDS011;5772;50.940;6.782;2023-09-12T02:03:42;24.20;;;22.50;;
11431;SDS011;5772;50.940;6.782;2023-09-12T02:06:07;26.17;;;24.07;;
11431;SDS011;5772;50.940;6.782;2023-09-12T02:08:33;23.83;;;22.20;;
11431;SDS011;5772;50.940;6.782;2023-09-12T02:10:58;25.73;;;23.57;;
11431;SDS011;5772;50.940;6.782;2023-09-12T02:13:23;25.07;;;23.30;;
11431;SDS011;5772;50.940;6.782;2023-09-12T02:15:49;24.07;;;22.20;;
11431;SDS011;5772;50.940;6.782;2023-09-12T02:18:15;25.30;;;23.13;;
11431;SDS011;5772;50.940;6.782;2023-09-12T02:20:41;23.17;;;21.00;;
11431;SDS011;5772;50.940;6.782;2023-09-12T02:23:06;24.63;;;22.63;;
11431;SDS011;5772;50.940;6.782;2023-09-12T02:25:32;24.63;;;22.73;;
11431;SDS011;5772;50.940;6.782;2023-09-12T02:28:00;25.73;;;23.73;;
11431;SDS011;5772;50.940;6.782;2023-09-12T02:30:25;24.90;;;22.73;;
11431;SDS011;5772;50.940;6.782;2023-09-12T02:32:50;25.87;;;23.47;;
11431;SDS011;5772;50.940;6.782;2023-09-12T02:35:17;25.33;;;23.33;;
11431;SDS011;5772;50.940;6.782;2023-09-12T02:37:42;26.43;;;24.40;;
11431;SDS011;5772;50.940;6.782;2023-09-12T02:40:08;27.40;;;25.43;;
11431;SDS011;5772;50.940;6.782;2023-09-12T02:42:33;24.83;;;22.83;;
11431;SDS011;5772;50.940;6.782;2023-09-12T02:44:59;26.93;;;24.77;;
11431;SDS011;5772;50.940;6.782;2023-09-12T02:47:24;24.80;;;23.10;;
11431;SDS011;5772;50.940;6.782;2023-09-12T02:49:50;27.17;;;24.93;;
11431;SDS011;5772;50.940;6.782;2023-09-12T02:52:16;26.57;;;24.53;;
11431;SDS011;5772;50.940;6.782;2023-09-12T02:54:42;24.73;;;22.73;;
11431;SDS011;5772;50.940;6.782;2023-09-12T02:57:07;27.83;;;25.67;;
11431;SDS011;5772;50.940;6.782;2023-09-12T02:59:32;28.77;;;26.77;;
11431;SDS011;5772;50.940;6.782;2023-09-12T03:01:58;29.63;;;27.17;;
11431;SDS011;5772;50.940;6.782;2023-09-12T03:04:24;29.60;;;27.07;;
11431;SDS011;5772;50.940;6.782;2023-09-12T03:06:50;29.80;;;27.23;;
11431;SDS011;5772;50.940;6.782;2023-09-12T03:09:17;28.00;;;26.00;;
11431;SDS011;5772;50.940;6.782;2023-09-12T03:11:42;29.40;;;26.70;;
11431;SDS011;5772;50.940;6.782;2023-09-12T03:14:07;28.60;;;26.43;;
11431;SDS011;5772;50.940;6.782;2023-09-12T03:16:33;29.37;;;27.27;;
11431;SDS011;5772;50.940;6.782;2023-09-12T03:18:58;29.80;;;27.50;;
11431;SDS011;5772;50.940;6.782;2023-09-12T03:21:23;27.63;;;25.47;;
11431;SDS011;5772;50.940;6.782;2023-09-12T03:23:49;27.40;;;25.20;;
11431;SDS011;5772;50.940;6.782;2023-09-12T03:26:15;28.37;;;26.17;;
11431;SDS011;5772;50.940;6.782;2023-09-12T03:28:41;27.60;;;25.40;;
11431;SDS011;5772;50.940;6.782;2023-09-12T03:31:07;27.03;;;24.93;;
11431;SDS011;5772;50.940;6.782;2023-09-12T03:33:33;27.77;;;25.87;;
11431;SDS011;5772;50.940;6.782;2023-09-12T03:35:59;28.20;;;26.10;;
11431;SDS011;5772;50.940;6.782;2023-09-12T03:38:24;27.10;;;24.80;;
11431;SDS011;5772;50.940;6.782;2023-09-12T03:40:49;26.70;;;24.60;;
11431;SDS011;5772;50.940;6.782;2023-09-12T03:43:16;26.10;;;24.13;;
11431;SDS011;5772;50.940;6.782;2023-09-12T03:45:41;25.07;;;23.03;;
11431;SDS011;5772;50.940;6.782;2023-09-12T03:48:07;25.20;;;22.53;;
11431;SDS011;5772;50.940;6.782;2023-09-12T03:50:32;24.23;;;22.33;;
11431;SDS011;5772;50.940;6.782;2023-09-12T03:52:57;24.43;;;22.83;;
11431;SDS011;5772;50.940;6.782;2023-09-12T03:55:23;23.07;;;21.37;;
11431;SDS011;5772;50.940;6.782;2023-09-12T03:57:48;24.03;;;22.30;;
11431;SDS011;5772;50.940;6.782;2023-09-12T04:00:15;23.17;;;21.10;;
11431;SDS011;5772;50.940;6.782;2023-09-12T04:02:41;23.90;;;22.23;;
11431;SDS011;5772;50.940;6.782;2023-09-12T04:05:06;24.13;;;21.90;;
11431;SDS011;5772;50.940;6.782;2023-09-12T04:07:32;23.00;;;21.02;;
11431;SDS011;5772;50.940;6.782;2023-09-12T04:09:58;24.85;;;22.38;;
11431;SDS011;5772;50.940;6.782;2023-09-12T04:12:23;21.33;;;19.80;;
11431;SDS011;5772;50.940;6.782;2023-09-12T04:14:49;23.10;;;21.30;;
11431;SDS011;5772;50.940;6.782;2023-09-12T04:17:16;23.85;;;22.00;;
11431;SDS011;5772;50.940;6.782;2023-09-12T04:19:41;24.40;;;22.60;;
11431;SDS011;5772;50.940;6.782;2023-09-12T04:22:06;22.98;;;21.38;;
11431;SDS011;5772;50.940;6.782;2023-09-12T04:24:32;24.67;;;22.98;;
11431;SDS011;5772;50.940;6.782;2023-09-12T04:26:57;23.80;;;21.98;;
11431;SDS011;5772;50.940;6.782;2023-09-12T04:29:22;23.88;;;22.02;;
11431;SDS011;5772;50.940;6.782;2023-09-12T04:31:47;25.13;;;23.27;;
11431;SDS011;5772;50.940;6.782;2023-09-12T04:34:14;26.63;;;24.50;;
11431;SDS011;5772;50.940;6.782;2023-09-12T04:36:40;26.77;;;24.97;;
11431;SDS011;5772;50.940;6.782;2023-09-12T04:39:05;25.92;;;24.02;;
11431;SDS011;5772;50.940;6.782;2023-09-12T04:41:30;22.73;;;21.15;;
11431;SDS011;5772;50.940;6.782;2023-09-12T04:43:56;23.75;;;22.10;;
11431;SDS011;5772;50.940;6.782;2023-09-12T04:46:21;25.65;;;23.55;;
11431;SDS011;5772;50.940;6.782;2023-09-12T04:48:46;27.40;;;25.33;;
11431;SDS011;5772;50.940;6.782;2023-09-12T04:51:13;23.37;;;21.57;;
11431;SDS011;5772;50.940;6.782;2023-09-12T04:53:38;23.40;;;21.73;;
11431;SDS011;5772;50.940;6.782;2023-09-12T04:56:04;22.60;;;20.90;;
11431;SDS011;5772;50.940;6.782;2023-09-12T04:58:29;23.43;;;21.83;;
11431;SDS011;5772;50.940;6.782;2023-09-12T05:00:55;22.70;;;21.00;;
11431;SDS011;5772;50.940;6.782;2023-09-12T05:03:21;21.77;;;19.80;;
11431;SDS011;5772;50.940;6.782;2023-09-12T05:05:46;19.93;;;18.73;;
11431;SDS011;5772;50.940;6.782;2023-09-12T05:08:13;25.27;;;23.30;;
11431;SDS011;5772;50.940;6.782;2023-09-12T05:10:38;22.23;;;20.65;;
11431;SDS011;5772;50.940;6.782;2023-09-12T05:13:04;22.57;;;20.87;;
11431;SDS011;5772;50.940;6.782;2023-09-12T05:15:29;23.47;;;21.87;;
11431;SDS011;5772;50.940;6.782;2023-09-12T05:17:54;23.07;;;20.93;;
11431;SDS011;5772;50.940;6.782;2023-09-12T05:20:20;22.13;;;20.40;;
11431;SDS011;5772;50.940;6.782;2023-09-12T05:22:45;21.83;;;19.93;;
11431;SDS011;5772;50.940;6.782;2023-09-12T05:25:12;21.97;;;20.37;;
11431;SDS011;5772;50.940;6.782;2023-09-12T05:27:37;21.77;;;20.37;;
11431;SDS011;5772;50.940;6.782;2023-09-12T05:30:03;21.75;;;20.42;;
11431;SDS011;5772;50.940;6.782;2023-09-12T05:32:29;22.27;;;20.73;;
11431;SDS011;5772;50.940;6.782;2023-09-12T05:34:54;20.53;;;19.23;;
11431;SDS011;5772;50.940;6.782;2023-09-12T05:37:19;22.13;;;20.45;;
11431;SDS011;5772;50.940;6.782;2023-09-12T05:39:45;21.70;;;20.50;;
11431;SDS011;5772;50.940;6.782;2023-09-12T05:42:11;20.30;;;19.20;;
11431;SDS011;5772;50.940;6.782;2023-09-12T05:44:37;21.73;;;20.63;;
11431;SDS011;5772;50.940;6.782;2023-09-12T05:47:02;21.67;;;20.25;;
11431;SDS011;5772;50.940;6.782;2023-09-12T05:49:28;23.73;;;22.25;;
11431;SDS011;5772;50.940;6.782;2023-09-12T05:51:53;23.80;;;22.40;;
11431;SDS011;5772;50.940;6.782;2023-09-12T05:54:19;22.45;;;21.05;;
11431;SDS011;5772;50.940;6.782;2023-09-12T05:56:44;22.88;;;21.48;;
11431;SDS011;5772;50.940;6.782;2023-09-12T05:59:11;24.20;;;22.48;;
11431;SDS011;5772;50.940;6.782;2023-09-12T06:01:36;23.38;;;21.80;;
11431;SDS011;5772;50.940;6.782;2023-09-12T06:04:02;25.50;;;23.63;;
11431;SDS011;5772;50.940;6.782;2023-09-12T06:06:27;25.00;;;23.13;;
11431;SDS011;5772;50.940;6.782;2023-09-12T06:08:52;24.55;;;22.70;;
11431;SDS011;5772;50.940;6.782;2023-09-12T06:11:18;27.15;;;24.55;;
11431;SDS011;5772;50.940;6.782;2023-09-12T06:13:43;27.67;;;24.67;;
11431;SDS011;5772;50.940;6.782;2023-09-12T06:16:10;28.13;;;25.65;;
11431;SDS011;5772;50.940;6.782;2023-09-12T06:18:35;27.40;;;25.20;;
11431;SDS011;5772;50.940;6.782;2023-09-12T06:21:00;26.90;;;24.48;;
11431;SDS011;5772;50.940;6.782;2023-09-12T06:23:26;26.30;;;23.55;;
11431;SDS011;5772;50.940;6.782;2023-09-12T06:25:51;24.20;;;22.40;;
11431;SDS011;5772;50.940;6.782;2023-09-12T06:28:24;25.73;;;23.42;;
11431;SDS011;5772;50.940;6.782;2023-09-12T06:30:50;26.75;;;24.10;;
11431;SDS011;5772;50.940;6.782;2023-09-12T06:33:16;26.67;;;24.33;;
11431;SDS011;5772;50.940;6.782;2023-09-12T06:35:42;30.52;;;27.88;;
11431;SDS011;5772;50.940;6.782;2023-09-12T06:38:07;26.70;;;24.60;;
11431;SDS011;5772;50.940;6.782;2023-09-12T06:40:33;25.08;;;23.17;;
11431;SDS011;5772;50.940;6.782;2023-09-12T06:42:58;24.15;;;22.15;;
11431;SDS011;5772;50.940;6.782;2023-09-12T06:45:23;23.85;;;21.85;;
11431;SDS011;5772;50.940;6.782;2023-09-12T06:47:49;24.15;;;22.15;;
11431;SDS011;5772;50.940;6.782;2023-09-12T06:50:15;21.27;;;19.70;;
11431;SDS011;5772;50.940;6.782;2023-09-12T06:52:41;22.50;;;20.60;;
11431;SDS011;5772;50.940;6.782;2023-09-12T06:55:06;21.77;;;20.00;;
11431;SDS011;5772;50.940;6.782;2023-09-12T06:57:32;20.73;;;19.05;;
11431;SDS011;5772;50.940;6.782;2023-09-12T06:59:57;22.95;;;21.15;;
11431;SDS011;5772;50.940;6.782;2023-09-12T07:02:23;22.85;;;21.10;;
11431;SDS011;5772;50.940;6.782;2023-09-12T07:04:48;28.05;;;26.25;;
11431;SDS011;5772;50.940;6.782;2023-09-12T07:07:15;25.98;;;23.98;;
11431;SDS011;5772;50.940;6.782;2023-09-12T07:09:40;24.45;;;22.88;;
11431;SDS011;5772;50.940;6.782;2023-09-12T07:12:06;26.10;;;24.00;;
11431;SDS011;5772;50.940;6.782;2023-09-12T07:14:31;28.98;;;27.13;;
11431;SDS011;5772;50.940;6.782;2023-09-12T07:16:57;28.23;;;26.50;;
11431;SDS011;5772;50.940;6.782;2023-09-12T07:19:22;27.02;;;25.48;;
11431;SDS011;5772;50.940;6.782;2023-09-12T07:21:47;22.58;;;20.98;;
11431;SDS011;5772;50.940;6.782;2023-09-12T07:24:14;19.98;;;18.52;;
11431;SDS011;5772;50.940;6.782;2023-09-12T07:26:39;21.23;;;19.67;;
11431;SDS011;5772;50.940;6.782;2023-09-12T07:29:05;25.00;;;22.77;;
11431;SDS011;5772;50.940;6.782;2023-09-12T07:31:30;24.23;;;22.58;;
11431;SDS011;5772;50.940;6.782;2023-09-12T07:33:55;21.40;;;20.05;;
11431;SDS011;5772;50.940;6.782;2023-09-12T07:36:21;21.48;;;19.90;;
11431;SDS011;5772;50.940;6.782;2023-09-12T07:38:46;24.27;;;22.10;;
11431;SDS011;5772;50.940;6.782;2023-09-12T07:41:13;20.17;;;18.77;;
11431;SDS011;5772;50.940;6.782;2023-09-12T07:43:38;17.80;;;16.40;;
11431;SDS011;5772;50.940;6.782;2023-09-12T07:46:04;16.33;;;14.95;;
11431;SDS011;5772;50.940;6.782;2023-09-12T07:48:29;16.25;;;15.25;;
11431;SDS011;5772;50.940;6.782;2023-09-12T07:50:55;17.05;;;15.95;;
11431;SDS011;5772;50.940;6.782;2023-09-12T07:53:20;17.55;;;16.35;;
11431;SDS011;5772;50.940;6.782;2023-09-12T07:55:45;17.40;;;16.40;;
11431;SDS011;5772;50.940;6.782;2023-09-12T07:58:12;15.65;;;14.68;;
11431;SDS011;5772;50.940;6.782;2023-09-12T08:00:38;14.23;;;13.43;;
11431;SDS011;5772;50.940;6.782;2023-09-12T08:03:03;15.65;;;14.75;;
11431;SDS011;5772;50.940;6.782;2023-09-12T08:05:29;15.63;;;14.52;;
11431;SDS011;5772;50.940;6.782;2023-09-12T08:07:54;14.70;;;13.77;;
11431;SDS011;5772;50.940;6.782;2023-09-12T08:10:20;13.82;;;12.93;;
11431;SDS011;5772;50.940;6.782;2023-09-12T08:12:45;15.95;;;14.85;;
11431;SDS011;5772;50.940;6.782;2023-09-12T08:15:12;16.45;;;15.23;;
11431;SDS011;5772;50.940;6.782;2023-09-12T08:17:37;15.10;;;14.20;;
11431;SDS011;5772;50.940;6.782;2023-09-12T08:20:03;16.35;;;15.35;;
11431;SDS011;5772;50.940;6.782;2023-09-12T08:22:29;14.18;;;13.27;;
11431;SDS011;5772;50.940;6.782;2023-09-12T08:24:54;16.00;;;14.98;;
11431;SDS011;5772;50.940;6.782;2023-09-12T08:27:20;15.65;;;14.93;;
11431;SDS011;5772;50.940;6.782;2023-09-12T08:29:45;16.02;;;15.13;;
11431;SDS011;5772;50.940;6.782;2023-09-12T08:32:12;14.68;;;13.88;;
11431;SDS011;5772;50.940;6.782;2023-09-12T08:34:37;15.13;;;14.32;;
11431;SDS011;5772;50.940;6.782;2023-09-12T08:37:03;16.27;;;15.35;;
11431;SDS011;5772;50.940;6.782;2023-09-12T08:39:36;16.58;;;15.77;;
11431;SDS011;5772;50.940;6.782;2023-09-12T08:42:05;15.05;;;14.15;;
11431;SDS011;5772;50.940;6.782;2023-09-12T08:44:31;17.05;;;16.10;;
11431;SDS011;5772;50.940;6.782;2023-09-12T08:46:56;15.35;;;14.50;;
11431;SDS011;5772;50.940;6.782;2023-09-12T08:49:23;14.20;;;13.43;;
11431;SDS011;5772;50.940;6.782;2023-09-12T08:51:49;14.35;;;13.55;;
11431;SDS011;5772;50.940;6.782;2023-09-12T08:54:14;16.17;;;15.15;;
11431;SDS011;5772;50.940;6.782;2023-09-12T08:56:40;14.77;;;14.07;;
11431;SDS011;5772;50.940;6.782;2023-09-12T08:59:07;14.27;;;13.60;;
11431;SDS011;5772;50.940;6.782;2023-09-12T09:01:32;14.50;;;13.27;;
11431;SDS011;5772;50.940;6.782;2023-09-12T09:03:59;14.57;;;13.77;;
11431;SDS011;5772;50.940;6.782;2023-09-12T09:06:27;14.30;;;13.63;;
11431;SDS011;5772;50.940;6.782;2023-09-12T09:08:55;15.07;;;14.27;;
11431;SDS011;5772;50.940;6.782;2023-09-12T09:11:21;13.90;;;13.20;;
11431;SDS011;5772;50.940;6.782;2023-09-12T09:13:46;15.73;;;14.68;;
11431;SDS011;5772;50.940;6.782;2023-09-12T09:16:12;14.82;;;14.10;;
11431;SDS011;5772;50.940;6.782;2023-09-12T09:18:53;14.27;;;13.48;;
11431;SDS011;5772;50.940;6.782;2023-09-12T09:21:20;14.50;;;13.80;;
11431;SDS011;5772;50.940;6.782;2023-09-12T09:23:47;14.35;;;13.55;;
11431;SDS011;5772;50.940;6.782;2023-09-12T09:26:13;15.27;;;14.48;;
11431;SDS011;5772;50.940;6.782;2023-09-12T09:28:38;15.15;;;14.40;;
11431;SDS011;5772;50.940;6.782;2023-09-12T09:31:03;14.45;;;13.75;;
11431;SDS011;5772;50.940;6.782;2023-09-12T09:33:29;15.30;;;14.40;;
11431;SDS011;5772;50.940;6.782;2023-09-12T09:36:02;16.40;;;15.38;;
11431;SDS011;5772;50.940;6.782;2023-09-12T09:38:28;15.60;;;14.65;;
11431;SDS011;5772;50.940;6.782;2023-09-12T09:40:55;15.98;;;14.75;;
11431;SDS011;5772;50.940;6.782;2023-09-12T09:43:20;14.25;;;13.52;;
11431;SDS011;5772;50.940;6.782;2023-09-12T09:45:46;15.30;;;14.43;;
11431;SDS011;5772;50.940;6.782;2023-09-12T09:48:17;15.25;;;14.13;;
11431;SDS011;5772;50.940;6.782;2023-09-12T09:50:43;14.63;;;13.93;;
11431;SDS011;5772;50.940;6.782;2023-09-12T09:53:08;14.70;;;13.98;;
11431;SDS011;5772;50.940;6.782;2023-09-12T09:55:34;14.38;;;13.75;;
11431;SDS011;5772;50.940;6.782;2023-09-12T09:58:00;15.48;;;14.57;;
11431;SDS011;5772;50.940;6.782;2023-09-12T10:00:26;14.45;;;13.75;;
11431;SDS011;5772;50.940;6.782;2023-09-12T10:02:53;15.98;;;14.98;;
11431;SDS011;5772;50.940;6.782;2023-09-12T10:05:20;16.15;;;15.27;;
11431;SDS011;5772;50.940;6.782;2023-09-12T10:07:47;15.00;;;14.30;;
11431;SDS011;5772;50.940;6.782;2023-09-12T10:10:13;15.23;;;14.43;;
11431;SDS011;5772;50.940;6.782;2023-09-12T10:12:40;16.35;;;15.40;;
11431;SDS011;5772;50.940;6.782;2023-09-12T10:15:09;15.75;;;14.73;;
11431;SDS011;5772;50.940;6.782;2023-09-12T10:17:37;16.27;;;15.38;;
11431;SDS011;5772;50.940;6.782;2023-09-12T10:20:06;14.05;;;13.25;;
11431;SDS011;5772;50.940;6.782;2023-09-12T10:22:34;15.70;;;14.65;;
11431;SDS011;5772;50.940;6.782;2023-09-12T10:25:02;15.45;;;14.55;;
11431;SDS011;5772;50.940;6.782;2023-09-12T10:27:28;16.33;;;15.43;;
11431;SDS011;5772;50.940;6.782;2023-09-12T10:29:54;15.25;;;14.27;;
11431;SDS011;5772;50.940;6.782;2023-09-12T10:32:21;14.63;;;13.80;;
11431;SDS011;5772;50.940;6.782;2023-09-12T10:34:47;14.82;;;13.93;;
11431;SDS011;5772;50.940;6.782;2023-09-12T10:37:14;13.85;;;13.18;;
11431;SDS011;5772;50.940;6.782;2023-09-12T10:39:41;13.93;;;13.23;;
11431;SDS011;5772;50.940;6.782;2023-09-12T10:42:08;14.48;;;13.38;;
11431;SDS011;5772;50.940;6.782;2023-09-12T10:44:33;13.88;;;13.27;;
11431;SDS011;5772;50.940;6.782;2023-09-12T10:46:59;13.70;;;13.07;;
11431;SDS011;5772;50.940;6.782;2023-09-12T10:49:26;15.10;;;14.35;;
11431;SDS011;5772;50.940;6.782;2023-09-12T10:51:52;14.35;;;13.75;;
11431;SDS011;5772;50.940;6.782;2023-09-12T10:54:22;15.05;;;14.35;;
11431;SDS011;5772;50.940;6.782;2023-09-12T10:56:55;13.32;;;12.73;;
11431;SDS011;5772;50.940;6.782;2023-09-12T10:59:27;14.70;;;13.90;;
11431;SDS011;5772;50.940;6.782;2023-09-12T11:01:52;13.32;;;12.73;;
11431;SDS011;5772;50.940;6.782;2023-09-12T11:04:32;14.57;;;13.82;;
11431;SDS011;5772;50.940;6.782;2023-09-12T11:06:58;15.05;;;14.20;;
11431;SDS011;5772;50.940;6.782;2023-09-12T11:09:24;15.52;;;14.73;;
11431;SDS011;5772;50.940;6.782;2023-09-12T11:11:54;14.38;;;13.48;;
11431;SDS011;5772;50.940;6.782;2023-09-12T11:14:21;15.93;;;15.13;;
11431;SDS011;5772;50.940;6.782;2023-09-12T11:19:47;14.75;;;13.95;;
11431;SDS011;5772;50.940;6.782;2023-09-12T11:22:20;14.18;;;13.57;;
11431;SDS011;5772;50.940;6.782;2023-09-12T11:24:46;13.70;;;13.00;;
11431;SDS011;5772;50.940;6.782;2023-09-12T11:27:12;15.27;;;14.55;;
11431;SDS011;5772;50.940;6.782;2023-09-12T11:29:37;14.40;;;13.70;;
11431;SDS011;5772;50.940;6.782;2023-09-12T11:32:04;14.82;;;14.23;;
11431;SDS011;5772;50.940;6.782;2023-09-12T11:34:35;16.08;;;15.18;;
11431;SDS011;5772;50.940;6.782;2023-09-12T11:37:03;14.75;;;13.80;;
11431;SDS011;5772;50.940;6.782;2023-09-12T11:39:29;14.95;;;14.25;;
11431;SDS011;5772;50.940;6.782;2023-09-12T11:41:55;14.35;;;13.65;;
11431;SDS011;5772;50.940;6.782;2023-09-12T11:44:21;14.85;;;14.15;;
11431;SDS011;5772;50.940;6.782;2023-09-12T11:46:47;16.45;;;15.25;;
11431;SDS011;5772;50.940;6.782;2023-09-12T11:49:13;15.82;;;15.00;;
11431;SDS011;5772;50.940;6.782;2023-09-12T11:51:45;14.68;;;13.85;;
11431;SDS011;5772;50.940;6.782;2023-09-12T11:54:14;15.73;;;14.57;;
11431;SDS011;5772;50.940;6.782;2023-09-12T11:56:40;16.02;;;15.23;;
11431;SDS011;5772;50.940;6.782;2023-09-12T11:59:06;15.90;;;15.20;;
11431;SDS011;5772;50.940;6.782;2023-09-12T12:01:31;16.73;;;15.65;;
11431;SDS011;5772;50.940;6.782;2023-09-12T12:03:57;17.33;;;16.33;;
11431;SDS011;5772;50.940;6.782;2023-09-12T12:06:22;14.82;;;13.93;;
11431;SDS011;5772;50.940;6.782;2023-09-12T12:08:48;20.65;;;14.50;;
11431;SDS011;5772;50.940;6.782;2023-09-12T12:11:14;16.15;;;15.07;;
11431;SDS011;5772;50.940;6.782;2023-09-12T12:13:40;15.60;;;14.48;;
11431;SDS011;5772;50.940;6.782;2023-09-12T12:16:14;14.80;;;14.00;;
11431;SDS011;5772;50.940;6.782;2023-09-12T12:18:40;15.85;;;14.98;;
11431;SDS011;5772;50.940;6.782;2023-09-12T12:21:05;15.10;;;14.20;;
11431;SDS011;5772;50.940;6.782;2023-09-12T12:23:30;15.50;;;14.48;;
11431;SDS011;5772;50.940;6.782;2023-09-12T12:25:56;16.75;;;15.85;;
11431;SDS011;5772;50.940;6.782;2023-09-12T12:28:22;15.25;;;14.40;;
11431;SDS011;5772;50.940;6.782;2023-09-12T12:30:49;22.10;;;20.33;;
11431;SDS011;5772;50.940;6.782;2023-09-12T12:33:16;17.60;;;16.30;;
11431;SDS011;5772;50.940;6.782;2023-09-12T12:35:42;18.10;;;16.90;;
11431;SDS011;5772;50.940;6.782;2023-09-12T12:38:07;21.85;;;19.92;;
11431;SDS011;5772;50.940;6.782;2023-09-12T12:40:36;19.15;;;17.80;;
11431;SDS011;5772;50.940;6.782;2023-09-12T12:43:02;18.10;;;16.73;;
11431;SDS011;5772;50.940;6.782;2023-09-12T12:45:29;15.77;;;14.80;;
11431;SDS011;5772;50.940;6.782;2023-09-12T12:47:56;16.77;;;15.93;;
11431;SDS011;5772;50.940;6.782;2023-09-12T12:50:22;15.90;;;14.90;;
11431;SDS011;5772;50.940;6.782;2023-09-12T12:52:48;18.13;;;17.05;;
11431;SDS011;5772;50.940;6.782;2023-09-12T12:55:15;16.67;;;15.75;;
11431;SDS011;5772;50.940;6.782;2023-09-12T12:57:41;16.88;;;15.80;;
11431;SDS011;5772;50.940;6.782;2023-09-12T13:00:08;16.27;;;15.38;;
11431;SDS011;5772;50.940;6.782;2023-09-12T13:02:36;17.17;;;16.25;;
11431;SDS011;5772;50.940;6.782;2023-09-12T13:05:01;16.05;;;15.15;;
11431;SDS011;5772;50.940;6.782;2023-09-12T13:07:27;15.25;;;14.45;;
11431;SDS011;5772;50.940;6.782;2023-09-12T13:09:52;15.57;;;14.48;;
11431;SDS011;5772;50.940;6.782;2023-09-12T13:12:17;15.13;;;14.32;;
11431;SDS011;5772;50.940;6.782;2023-09-12T13:14:43;16.83;;;15.82;;
11431;SDS011;5772;50.940;6.782;2023-09-12T13:17:08;14.75;;;13.85;;
11431;SDS011;5772;50.940;6.782;2023-09-12T13:19:35;15.65;;;14.85;;
11431;SDS011;5772;50.940;6.782;2023-09-12T13:22:00;16.92;;;15.93;;
11431;SDS011;5772;50.940;6.782;2023-09-12T13:24:25;15.27;;;14.15;;
11431;SDS011;5772;50.940;6.782;2023-09-12T13:26:51;15.07;;;14.27;;
11431;SDS011;5772;50.940;6.782;2023-09-12T13:29:16;15.27;;;14.38;;
11431;SDS011;5772;50.940;6.782;2023-09-12T13:31:42;16.42;;;15.32;;
11431;SDS011;5772;50.940;6.782;2023-09-12T13:34:07;15.65;;;14.75;;
11431;SDS011;5772;50.940;6.782;2023-09-12T13:36:34;16.73;;;15.70;;
11431;SDS011;5772;50.940;6.782;2023-09-12T13:38:59;16.35;;;15.55;;
11431;SDS011;5772;50.940;6.782;2023-09-12T13:41:24;15.35;;;14.45;;
11431;SDS011;5772;50.940;6.782;2023-09-12T13:43:50;16.30;;;15.32;;
11431;SDS011;5772;50.940;6.782;2023-09-12T13:46:15;15.75;;;14.95;;
11431;SDS011;5772;50.940;6.782;2023-09-12T13:48:40;15.23;;;14.43;;
11431;SDS011;5772;50.940;6.782;2023-09-12T13:51:06;15.90;;;15.00;;
11431;SDS011;5772;50.940;6.782;2023-09-12T13:53:32;15.55;;;14.85;;
11431;SDS011;5772;50.940;6.782;2023-09-12T13:55:58;16.02;;;15.13;;
11431;SDS011;5772;50.940;6.782;2023-09-12T13:58:23;16.17;;;15.30;;
11431;SDS011;5772;50.940;6.782;2023-09-12T14:00:49;16.33;;;15.40;;
11431;SDS011;5772;50.940;6.782;2023-09-12T14:03:14;17.13;;;16.23;;
11431;SDS011;5772;50.940;6.782;2023-09-12T14:05:40;17.48;;;16.38;;
11431;SDS011;5772;50.940;6.782;2023-09-12T14:08:05;16.58;;;15.77;;
11431;SDS011;5772;50.940;6.782;2023-09-12T14:10:32;16.42;;;15.55;;
11431;SDS011;5772;50.940;6.782;2023-09-12T14:12:57;17.05;;;15.95;;
11431;SDS011;5772;50.940;6.782;2023-09-12T14:15:22;16.10;;;15.10;;
11431;SDS011;5772;50.940;6.782;2023-09-12T14:17:48;15.55;;;14.75;;
11431;SDS011;5772;50.940;6.782;2023-09-12T14:20:13;16.20;;;15.30;;
11431;SDS011;5772;50.940;6.782;2023-09-12T14:22:39;15.40;;;14.40;;
11431;SDS011;5772;50.940;6.782;2023-09-12T14:25:04;15.85;;;14.75;;
11431;SDS011;5772;50.940;6.782;2023-09-12T14:27:31;15.35;;;14.52;;
11431;SDS011;5772;50.940;6.782;2023-09-12T14:29:57;15.25;;;14.25;;
11431;SDS011;5772;50.940;6.782;2023-09-12T14:32:22;14.85;;;13.98;;